sensor_id;sensor_type;location;lat;lon;timestamp;P1;durP1;ratioP1;P2;durP2;ratioP2
14907;SDS011;7545;52.092;7.006;2022-12-08T00:01:47;9.90;;;7.67;;
14907;SDS011;7545;52.092;7.006;2022-12-08T00:04:13;9.73;;;7.93;;
14907;SDS011;7545;52.092;7.006;2022-12-08T00:06:39;8.40;;;7.50;;
14907;SDS011;7545;52.092;7.006;2022-12-08T00:09:33;10.60;;;7.47;;
14907;SDS011;7545;52.092;7.006;2022-12-08T00:12:01;11.00;;;7.00;;
14907;SDS011;7545;52.092;7.006;2022-12-08T00:14:31;8.50;;;7.53;;
14907;SDS011;7545;52.092;7.006;2022-12-08T00:16:57;9.10;;;7.83;;
14907;SDS011;7545;52.092;7.006;2022-12-08T00:19:24;11.07;;;8.20;;
14907;SDS011;7545;52.092;7.006;2022-12-08T00:21:50;8.50;;;7.00;;
14907;SDS011;7545;52.092;7.006;2022-12-08T00:24:17;11.80;;;7.87;;
14907;SDS011;7545;52.092;7.006;2022-12-08T00:26:43;7.80;;;6.77;;
14907;SDS011;7545;52.092;7.006;2022-12-08T00:29:08;10.37;;;7.97;;
14907;SDS011;7545;52.092;7.006;2022-12-08T00:31:34;11.53;;;8.13;;
14907;SDS011;7545;52.092;7.006;2022-12-08T00:34:00;9.63;;;8.27;;
14907;SDS011;7545;52.092;7.006;2022-12-08T00:36:25;10.60;;;8.27;;
14907;SDS011;7545;52.092;7.006;2022-12-08T00:38:51;10.27;;;6.73;;
14907;SDS011;7545;52.092;7.006;2022-12-08T00:41:18;9.07;;;7.47;;
14907;SDS011;7545;52.092;7.006;2022-12-08T00:44:03;8.93;;;7.57;;
14907;SDS011;7545;52.092;7.006;2022-12-08T00:46:30;11.07;;;7.73;;
14907;SDS011;7545;52.092;7.006;2022-12-08T00:48:56;9.83;;;7.10;;
14907;SDS011;7545;52.092;7.006;2022-12-08T00:51:21;11.30;;;7.97;;
14907;SDS011;7545;52.092;7.006;2022-12-08T00:53:47;8.83;;;7.13;;
14907;SDS011;7545;52.092;7.006;2022-12-08T00:56:12;9.00;;;7.07;;
14907;SDS011;7545;52.092;7.006;2022-12-08T00:58:38;11.00;;;7.87;;
14907;SDS011;7545;52.092;7.006;2022-12-08T01:01:08;8.43;;;7.27;;
14907;SDS011;7545;52.092;7.006;2022-12-08T01:03:35;9.13;;;7.90;;
14907;SDS011;7545;52.092;7.006;2022-12-08T01:06:04;13.80;;;8.10;;
14907;SDS011;7545;52.092;7.006;2022-12-08T01:08:31;12.20;;;7.37;;
14907;SDS011;7545;52.092;7.006;2022-12-08T01:11:01;13.13;;;10.13;;
14907;SDS011;7545;52.092;7.006;2022-12-08T01:13:32;11.43;;;9.17;;
14907;SDS011;7545;52.092;7.006;2022-12-08T01:15:58;10.53;;;8.47;;
14907;SDS011;7545;52.092;7.006;2022-12-08T01:18:23;12.07;;;8.73;;
14907;SDS011;7545;52.092;7.006;2022-12-08T01:20:50;9.60;;;7.73;;
14907;SDS011;7545;52.092;7.006;2022-12-08T01:23:15;11.57;;;7.83;;
14907;SDS011;7545;52.092;7.006;2022-12-08T01:25:41;9.80;;;7.53;;
14907;SDS011;7545;52.092;7.006;2022-12-08T01:28:06;11.63;;;7.83;;
14907;SDS011;7545;52.092;7.006;2022-12-08T01:30:32;11.47;;;7.77;;
14907;SDS011;7545;52.092;7.006;2022-12-08T01:32:58;9.00;;;7.77;;
14907;SDS011;7545;52.092;7.006;2022-12-08T01:35:24;10.90;;;8.07;;
14907;SDS011;7545;52.092;7.006;2022-12-08T01:37:49;9.37;;;7.30;;
14907;SDS011;7545;52.092;7.006;2022-12-08T01:40:16;12.97;;;7.83;;
14907;SDS011;7545;52.092;7.006;2022-12-08T01:42:48;11.67;;;8.90;;
14907;SDS011;7545;52.092;7.006;2022-12-08T01:45:27;9.43;;;7.90;;
14907;SDS011;7545;52.092;7.006;2022-12-08T01:47:55;10.10;;;7.47;;
14907;SDS011;7545;52.092;7.006;2022-12-08T01:50:26;10.10;;;8.77;;
14907;SDS011;7545;52.092;7.006;2022-12-08T01:52:53;9.40;;;8.40;;
14907;SDS011;7545;52.092;7.006;2022-12-08T01:55:25;10.73;;;7.90;;
14907;SDS011;7545;52.092;7.006;2022-12-08T01:57:57;9.13;;;8.17;;
14907;SDS011;7545;52.092;7.006;2022-12-08T02:00:28;12.03;;;8.23;;
14907;SDS011;7545;52.092;7.006;2022-12-08T02:02:56;13.43;;;8.63;;
14907;SDS011;7545;52.092;7.006;2022-12-08T02:05:27;10.20;;;8.13;;
14907;SDS011;7545;52.092;7.006;2022-12-08T02:07:55;12.03;;;8.47;;
14907;SDS011;7545;52.092;7.006;2022-12-08T02:10:23;10.00;;;8.27;;
14907;SDS011;7545;52.092;7.006;2022-12-08T02:12:53;9.73;;;8.77;;
14907;SDS011;7545;52.092;7.006;2022-12-08T02:15:22;11.20;;;8.20;;
14907;SDS011;7545;52.092;7.006;2022-12-08T02:21:13;11.70;;;8.47;;
14907;SDS011;7545;52.092;7.006;2022-12-08T02:32:16;9.77;;;8.30;;
14907;SDS011;7545;52.092;7.006;2022-12-08T02:46:20;10.07;;;8.03;;
14907;SDS011;7545;52.092;7.006;2022-12-08T02:48:50;9.83;;;6.70;;
14907;SDS011;7545;52.092;7.006;2022-12-08T02:51:16;7.23;;;6.47;;
14907;SDS011;7545;52.092;7.006;2022-12-08T02:53:42;8.93;;;7.30;;
14907;SDS011;7545;52.092;7.006;2022-12-08T02:59:30;8.80;;;6.67;;
14907;SDS011;7545;52.092;7.006;2022-12-08T03:02:26;9.50;;;6.83;;
14907;SDS011;7545;52.092;7.006;2022-12-08T03:07:59;9.10;;;5.93;;
14907;SDS011;7545;52.092;7.006;2022-12-08T03:10:32;6.10;;;5.40;;
14907;SDS011;7545;52.092;7.006;2022-12-08T03:13:08;8.10;;;6.70;;
14907;SDS011;7545;52.092;7.006;2022-12-08T03:15:41;8.07;;;6.23;;
14907;SDS011;7545;52.092;7.006;2022-12-08T03:18:09;6.87;;;6.27;;
14907;SDS011;7545;52.092;7.006;2022-12-08T03:20:38;7.83;;;6.03;;
14907;SDS011;7545;52.092;7.006;2022-12-08T03:23:05;8.80;;;6.77;;
14907;SDS011;7545;52.092;7.006;2022-12-08T03:25:35;9.20;;;6.10;;
14907;SDS011;7545;52.092;7.006;2022-12-08T03:28:05;6.00;;;5.40;;
14907;SDS011;7545;52.092;7.006;2022-12-08T03:30:31;8.77;;;5.90;;
14907;SDS011;7545;52.092;7.006;2022-12-08T03:33:02;9.87;;;6.33;;
14907;SDS011;7545;52.092;7.006;2022-12-08T03:35:32;8.13;;;5.87;;
14907;SDS011;7545;52.092;7.006;2022-12-08T03:38:04;7.77;;;6.30;;
14907;SDS011;7545;52.092;7.006;2022-12-08T03:40:31;9.77;;;6.70;;
14907;SDS011;7545;52.092;7.006;2022-12-08T03:42:57;10.33;;;6.73;;
14907;SDS011;7545;52.092;7.006;2022-12-08T03:45:23;7.83;;;7.03;;
14907;SDS011;7545;52.092;7.006;2022-12-08T03:47:49;11.63;;;6.83;;
14907;SDS011;7545;52.092;7.006;2022-12-08T03:50:15;7.33;;;6.33;;
14907;SDS011;7545;52.092;7.006;2022-12-08T03:52:41;11.47;;;8.13;;
14907;SDS011;7545;52.092;7.006;2022-12-08T03:55:06;8.77;;;7.07;;
14907;SDS011;7545;52.092;7.006;2022-12-08T03:57:32;8.23;;;7.37;;
14907;SDS011;7545;52.092;7.006;2022-12-08T03:59:57;8.70;;;7.03;;
14907;SDS011;7545;52.092;7.006;2022-12-08T04:02:23;9.97;;;7.73;;
14907;SDS011;7545;52.092;7.006;2022-12-08T04:04:49;11.03;;;7.40;;
14907;SDS011;7545;52.092;7.006;2022-12-08T04:07:15;7.93;;;7.13;;
14907;SDS011;7545;52.092;7.006;2022-12-08T04:09:40;11.33;;;7.77;;
14907;SDS011;7545;52.092;7.006;2022-12-08T04:12:06;9.03;;;7.40;;
14907;SDS011;7545;52.092;7.006;2022-12-08T04:14:33;11.07;;;8.23;;
14907;SDS011;7545;52.092;7.006;2022-12-08T04:16:58;8.53;;;7.50;;
14907;SDS011;7545;52.092;7.006;2022-12-08T04:19:24;11.57;;;7.93;;
14907;SDS011;7545;52.092;7.006;2022-12-08T04:21:50;10.37;;;7.40;;
14907;SDS011;7545;52.092;7.006;2022-12-08T04:24:15;9.57;;;7.70;;
14907;SDS011;7545;52.092;7.006;2022-12-08T04:26:41;11.27;;;7.67;;
14907;SDS011;7545;52.092;7.006;2022-12-08T04:29:07;8.77;;;7.23;;
14907;SDS011;7545;52.092;7.006;2022-12-08T04:31:33;8.93;;;7.40;;
14907;SDS011;7545;52.092;7.006;2022-12-08T04:33:58;8.93;;;7.53;;
14907;SDS011;7545;52.092;7.006;2022-12-08T04:36:24;9.40;;;8.20;;
14907;SDS011;7545;52.092;7.006;2022-12-08T04:38:49;8.90;;;7.17;;
14907;SDS011;7545;52.092;7.006;2022-12-08T04:41:15;9.83;;;7.67;;
14907;SDS011;7545;52.092;7.006;2022-12-08T04:43:40;9.00;;;6.97;;
14907;SDS011;7545;52.092;7.006;2022-12-08T04:46:08;8.27;;;7.33;;
14907;SDS011;7545;52.092;7.006;2022-12-08T04:48:35;8.70;;;7.67;;
14907;SDS011;7545;52.092;7.006;2022-12-08T04:51:02;8.57;;;7.17;;
14907;SDS011;7545;52.092;7.006;2022-12-08T04:53:27;9.13;;;6.50;;
14907;SDS011;7545;52.092;7.006;2022-12-08T04:55:53;9.03;;;8.03;;
14907;SDS011;7545;52.092;7.006;2022-12-08T04:58:18;8.53;;;6.37;;
14907;SDS011;7545;52.092;7.006;2022-12-08T05:00:45;8.43;;;6.40;;
14907;SDS011;7545;52.092;7.006;2022-12-08T05:03:11;8.67;;;6.47;;
14907;SDS011;7545;52.092;7.006;2022-12-08T05:05:38;9.00;;;7.23;;
14907;SDS011;7545;52.092;7.006;2022-12-08T05:08:04;8.97;;;7.70;;
14907;SDS011;7545;52.092;7.006;2022-12-08T05:10:30;8.40;;;6.97;;
14907;SDS011;7545;52.092;7.006;2022-12-08T05:12:56;8.87;;;6.83;;
14907;SDS011;7545;52.092;7.006;2022-12-08T05:15:23;8.20;;;6.80;;
14907;SDS011;7545;52.092;7.006;2022-12-08T05:17:48;9.03;;;7.57;;
14907;SDS011;7545;52.092;7.006;2022-12-08T05:20:14;10.37;;;7.03;;
14907;SDS011;7545;52.092;7.006;2022-12-08T05:22:40;9.50;;;6.73;;
14907;SDS011;7545;52.092;7.006;2022-12-08T05:25:05;6.80;;;6.10;;
14907;SDS011;7545;52.092;7.006;2022-12-08T05:27:31;9.27;;;7.40;;
14907;SDS011;7545;52.092;7.006;2022-12-08T05:29:57;8.37;;;7.37;;
14907;SDS011;7545;52.092;7.006;2022-12-08T05:32:23;8.57;;;6.80;;
14907;SDS011;7545;52.092;7.006;2022-12-08T05:34:48;9.67;;;7.23;;
14907;SDS011;7545;52.092;7.006;2022-12-08T05:37:14;8.37;;;6.83;;
14907;SDS011;7545;52.092;7.006;2022-12-08T05:39:39;9.90;;;6.60;;
14907;SDS011;7545;52.092;7.006;2022-12-08T05:42:05;8.60;;;7.17;;
14907;SDS011;7545;52.092;7.006;2022-12-08T05:44:30;7.93;;;6.40;;
14907;SDS011;7545;52.092;7.006;2022-12-08T05:46:56;6.83;;;5.77;;
14907;SDS011;7545;52.092;7.006;2022-12-08T05:49:21;7.07;;;5.93;;
14907;SDS011;7545;52.092;7.006;2022-12-08T05:51:47;8.57;;;6.47;;
14907;SDS011;7545;52.092;7.006;2022-12-08T05:54:13;8.97;;;6.67;;
14907;SDS011;7545;52.092;7.006;2022-12-08T05:56:38;9.33;;;6.57;;
14907;SDS011;7545;52.092;7.006;2022-12-08T05:59:07;8.83;;;6.43;;
14907;SDS011;7545;52.092;7.006;2022-12-08T06:01:33;7.47;;;5.57;;
14907;SDS011;7545;52.092;7.006;2022-12-08T06:04:00;8.47;;;6.07;;
14907;SDS011;7545;52.092;7.006;2022-12-08T06:06:27;7.10;;;5.73;;
14907;SDS011;7545;52.092;7.006;2022-12-08T06:08:53;7.27;;;5.97;;
14907;SDS011;7545;52.092;7.006;2022-12-08T06:11:20;7.10;;;5.43;;
14907;SDS011;7545;52.092;7.006;2022-12-08T06:13:51;6.90;;;5.97;;
14907;SDS011;7545;52.092;7.006;2022-12-08T06:16:17;7.10;;;6.00;;
14907;SDS011;7545;52.092;7.006;2022-12-08T06:18:43;6.80;;;5.43;;
14907;SDS011;7545;52.092;7.006;2022-12-08T06:21:09;6.27;;;4.90;;
14907;SDS011;7545;52.092;7.006;2022-12-08T06:23:36;6.57;;;5.77;;
14907;SDS011;7545;52.092;7.006;2022-12-08T06:26:03;6.33;;;5.23;;
14907;SDS011;7545;52.092;7.006;2022-12-08T06:28:31;8.37;;;5.67;;
14907;SDS011;7545;52.092;7.006;2022-12-08T06:30:58;10.87;;;6.90;;
14907;SDS011;7545;52.092;7.006;2022-12-08T06:33:24;8.57;;;6.70;;
14907;SDS011;7545;52.092;7.006;2022-12-08T06:35:50;8.90;;;6.00;;
14907;SDS011;7545;52.092;7.006;2022-12-08T06:38:16;6.90;;;5.90;;
14907;SDS011;7545;52.092;7.006;2022-12-08T06:40:42;7.53;;;5.57;;
14907;SDS011;7545;52.092;7.006;2022-12-08T06:43:08;6.77;;;5.20;;
14907;SDS011;7545;52.092;7.006;2022-12-08T06:45:33;7.43;;;5.40;;
14907;SDS011;7545;52.092;7.006;2022-12-08T06:48:00;6.63;;;4.53;;
14907;SDS011;7545;52.092;7.006;2022-12-08T06:50:26;6.13;;;4.70;;
14907;SDS011;7545;52.092;7.006;2022-12-08T06:52:51;5.53;;;3.90;;
14907;SDS011;7545;52.092;7.006;2022-12-08T06:55:17;7.57;;;4.50;;
14907;SDS011;7545;52.092;7.006;2022-12-08T06:57:42;5.83;;;4.03;;
14907;SDS011;7545;52.092;7.006;2022-12-08T07:00:08;4.07;;;3.20;;
14907;SDS011;7545;52.092;7.006;2022-12-08T07:02:34;6.57;;;3.30;;
14907;SDS011;7545;52.092;7.006;2022-12-08T07:04:59;6.70;;;3.83;;
14907;SDS011;7545;52.092;7.006;2022-12-08T07:07:25;5.73;;;3.30;;
14907;SDS011;7545;52.092;7.006;2022-12-08T07:09:51;4.47;;;2.50;;
14907;SDS011;7545;52.092;7.006;2022-12-08T07:12:16;4.47;;;3.37;;
14907;SDS011;7545;52.092;7.006;2022-12-08T07:14:42;3.97;;;3.03;;
14907;SDS011;7545;52.092;7.006;2022-12-08T07:17:07;5.97;;;3.10;;
14907;SDS011;7545;52.092;7.006;2022-12-08T07:19:33;3.83;;;2.90;;
14907;SDS011;7545;52.092;7.006;2022-12-08T07:21:58;2.67;;;2.47;;
14907;SDS011;7545;52.092;7.006;2022-12-08T07:24:24;3.00;;;2.60;;
14907;SDS011;7545;52.092;7.006;2022-12-08T07:26:49;3.97;;;2.90;;
14907;SDS011;7545;52.092;7.006;2022-12-08T07:29:15;3.97;;;2.17;;
14907;SDS011;7545;52.092;7.006;2022-12-08T07:31:40;3.57;;;2.50;;
14907;SDS011;7545;52.092;7.006;2022-12-08T07:34:06;3.10;;;2.70;;
14907;SDS011;7545;52.092;7.006;2022-12-08T07:36:32;4.67;;;2.80;;
14907;SDS011;7545;52.092;7.006;2022-12-08T07:38:58;4.23;;;2.73;;
14907;SDS011;7545;52.092;7.006;2022-12-08T07:41:24;3.87;;;3.10;;
14907;SDS011;7545;52.092;7.006;2022-12-08T07:43:50;2.47;;;2.27;;
14907;SDS011;7545;52.092;7.006;2022-12-08T07:46:18;3.10;;;2.57;;
14907;SDS011;7545;52.092;7.006;2022-12-08T07:48:45;2.93;;;2.40;;
14907;SDS011;7545;52.092;7.006;2022-12-08T07:51:12;2.37;;;2.17;;
14907;SDS011;7545;52.092;7.006;2022-12-08T07:53:39;2.53;;;2.33;;
14907;SDS011;7545;52.092;7.006;2022-12-08T07:56:06;2.63;;;2.43;;
14907;SDS011;7545;52.092;7.006;2022-12-08T07:58:33;2.70;;;2.40;;
14907;SDS011;7545;52.092;7.006;2022-12-08T08:00:58;2.77;;;2.53;;
14907;SDS011;7545;52.092;7.006;2022-12-08T08:03:24;3.07;;;2.70;;
14907;SDS011;7545;52.092;7.006;2022-12-08T08:05:49;3.93;;;2.70;;
14907;SDS011;7545;52.092;7.006;2022-12-08T08:08:15;2.57;;;2.37;;
14907;SDS011;7545;52.092;7.006;2022-12-08T08:10:41;2.90;;;2.70;;
14907;SDS011;7545;52.092;7.006;2022-12-08T08:13:08;2.73;;;2.53;;
14907;SDS011;7545;52.092;7.006;2022-12-08T08:15:34;3.00;;;2.70;;
14907;SDS011;7545;52.092;7.006;2022-12-08T08:17:59;3.83;;;2.83;;
14907;SDS011;7545;52.092;7.006;2022-12-08T08:20:25;3.80;;;3.40;;
14907;SDS011;7545;52.092;7.006;2022-12-08T08:22:51;3.40;;;3.10;;
14907;SDS011;7545;52.092;7.006;2022-12-08T08:25:17;3.90;;;3.50;;
14907;SDS011;7545;52.092;7.006;2022-12-08T08:27:46;3.57;;;3.27;;
14907;SDS011;7545;52.092;7.006;2022-12-08T08:30:12;4.67;;;3.83;;
14907;SDS011;7545;52.092;7.006;2022-12-08T08:32:39;3.97;;;3.17;;
14907;SDS011;7545;52.092;7.006;2022-12-08T08:35:04;3.60;;;3.30;;
14907;SDS011;7545;52.092;7.006;2022-12-08T08:37:31;4.87;;;3.30;;
14907;SDS011;7545;52.092;7.006;2022-12-08T08:39:56;4.27;;;3.07;;
14907;SDS011;7545;52.092;7.006;2022-12-08T08:42:22;4.33;;;3.93;;
14907;SDS011;7545;52.092;7.006;2022-12-08T08:44:47;4.23;;;3.60;;
14907;SDS011;7545;52.092;7.006;2022-12-08T08:47:13;3.57;;;3.27;;
14907;SDS011;7545;52.092;7.006;2022-12-08T08:49:39;4.33;;;3.57;;
14907;SDS011;7545;52.092;7.006;2022-12-08T08:52:05;4.07;;;3.67;;
14907;SDS011;7545;52.092;7.006;2022-12-08T08:54:31;4.23;;;3.83;;
14907;SDS011;7545;52.092;7.006;2022-12-08T08:56:57;4.00;;;3.63;;
14907;SDS011;7545;52.092;7.006;2022-12-08T08:59:24;3.90;;;3.43;;
14907;SDS011;7545;52.092;7.006;2022-12-08T09:01:51;4.27;;;3.87;;
14907;SDS011;7545;52.092;7.006;2022-12-08T09:04:17;4.07;;;3.67;;
14907;SDS011;7545;52.092;7.006;2022-12-08T09:06:43;6.63;;;5.33;;
14907;SDS011;7545;52.092;7.006;2022-12-08T09:09:09;7.43;;;5.87;;
14907;SDS011;7545;52.092;7.006;2022-12-08T09:11:35;6.77;;;5.30;;
14907;SDS011;7545;52.092;7.006;2022-12-08T09:14:01;6.27;;;4.50;;
14907;SDS011;7545;52.092;7.006;2022-12-08T09:16:27;5.67;;;4.20;;
14907;SDS011;7545;52.092;7.006;2022-12-08T09:18:53;5.10;;;4.43;;
14907;SDS011;7545;52.092;7.006;2022-12-08T09:21:21;5.00;;;4.50;;
14907;SDS011;7545;52.092;7.006;2022-12-08T09:23:50;4.97;;;4.40;;
14907;SDS011;7545;52.092;7.006;2022-12-08T09:26:20;5.03;;;4.53;;
14907;SDS011;7545;52.092;7.006;2022-12-08T09:28:47;4.27;;;3.87;;
14907;SDS011;7545;52.092;7.006;2022-12-08T09:31:17;7.80;;;4.77;;
14907;SDS011;7545;52.092;7.006;2022-12-08T09:33:45;5.13;;;3.83;;
14907;SDS011;7545;52.092;7.006;2022-12-08T09:36:11;5.47;;;4.63;;
14907;SDS011;7545;52.092;7.006;2022-12-08T09:38:37;5.73;;;4.03;;
14907;SDS011;7545;52.092;7.006;2022-12-08T09:41:08;5.07;;;3.80;;
14907;SDS011;7545;52.092;7.006;2022-12-08T09:46:35;5.67;;;4.40;;
14907;SDS011;7545;52.092;7.006;2022-12-08T09:49:02;6.77;;;5.20;;
14907;SDS011;7545;52.092;7.006;2022-12-08T09:51:34;4.93;;;4.23;;
14907;SDS011;7545;52.092;7.006;2022-12-08T09:56:58;5.47;;;3.77;;
14907;SDS011;7545;52.092;7.006;2022-12-08T09:59:28;5.10;;;4.60;;
14907;SDS011;7545;52.092;7.006;2022-12-08T10:01:56;8.23;;;4.27;;
14907;SDS011;7545;52.092;7.006;2022-12-08T10:04:30;6.23;;;4.80;;
14907;SDS011;7545;52.092;7.006;2022-12-08T10:12:57;3.87;;;3.33;;
14907;SDS011;7545;52.092;7.006;2022-12-08T10:15:34;4.00;;;3.30;;
14907;SDS011;7545;52.092;7.006;2022-12-08T10:18:18;5.87;;;3.67;;
14907;SDS011;7545;52.092;7.006;2022-12-08T10:20:49;3.97;;;3.57;;
14907;SDS011;7545;52.092;7.006;2022-12-08T10:23:49;4.00;;;3.43;;
14907;SDS011;7545;52.092;7.006;2022-12-08T10:26:13;4.90;;;3.10;;
14907;SDS011;7545;52.092;7.006;2022-12-08T10:28:40;3.67;;;2.53;;
14907;SDS011;7545;52.092;7.006;2022-12-08T10:31:13;7.10;;;3.67;;
14907;SDS011;7545;52.092;7.006;2022-12-08T10:33:44;4.47;;;3.17;;
14907;SDS011;7545;52.092;7.006;2022-12-08T10:36:12;4.00;;;3.60;;
14907;SDS011;7545;52.092;7.006;2022-12-08T10:38:38;6.03;;;4.03;;
14907;SDS011;7545;52.092;7.006;2022-12-08T10:43:33;5.10;;;3.17;;
14907;SDS011;7545;52.092;7.006;2022-12-08T10:46:12;5.10;;;2.73;;
14907;SDS011;7545;52.092;7.006;2022-12-08T10:48:52;3.27;;;2.53;;
14907;SDS011;7545;52.092;7.006;2022-12-08T10:51:21;3.73;;;2.57;;
14907;SDS011;7545;52.092;7.006;2022-12-08T10:53:50;3.70;;;2.57;;
14907;SDS011;7545;52.092;7.006;2022-12-08T10:56:16;2.53;;;2.13;;
14907;SDS011;7545;52.092;7.006;2022-12-08T10:58:45;2.40;;;2.20;;
14907;SDS011;7545;52.092;7.006;2022-12-08T11:01:24;2.40;;;1.97;;
14907;SDS011;7545;52.092;7.006;2022-12-08T11:03:54;2.27;;;2.07;;
14907;SDS011;7545;52.092;7.006;2022-12-08T11:08:56;2.87;;;2.57;;
14907;SDS011;7545;52.092;7.006;2022-12-08T11:11:37;4.63;;;2.80;;
14907;SDS011;7545;52.092;7.006;2022-12-08T11:14:15;4.57;;;2.90;;
14907;SDS011;7545;52.092;7.006;2022-12-08T11:16:45;3.40;;;3.10;;
14907;SDS011;7545;52.092;7.006;2022-12-08T11:19:16;5.27;;;2.90;;
14907;SDS011;7545;52.092;7.006;2022-12-08T11:21:43;2.90;;;2.60;;
14907;SDS011;7545;52.092;7.006;2022-12-08T11:26:38;3.80;;;2.97;;
14907;SDS011;7545;52.092;7.006;2022-12-08T11:29:09;3.43;;;2.70;;
14907;SDS011;7545;52.092;7.006;2022-12-08T11:31:41;3.30;;;3.00;;
14907;SDS011;7545;52.092;7.006;2022-12-08T11:34:17;3.20;;;2.63;;
14907;SDS011;7545;52.092;7.006;2022-12-08T11:36:46;4.40;;;3.67;;
14907;SDS011;7545;52.092;7.006;2022-12-08T11:39:15;5.00;;;2.60;;
14907;SDS011;7545;52.092;7.006;2022-12-08T11:41:41;3.20;;;2.63;;
14907;SDS011;7545;52.092;7.006;2022-12-08T11:47:13;5.90;;;3.30;;
14907;SDS011;7545;52.092;7.006;2022-12-08T11:49:52;4.17;;;3.20;;
14907;SDS011;7545;52.092;7.006;2022-12-08T11:52:28;5.13;;;3.57;;
14907;SDS011;7545;52.092;7.006;2022-12-08T11:55:02;5.50;;;3.90;;
14907;SDS011;7545;52.092;7.006;2022-12-08T11:57:40;3.67;;;3.03;;
14907;SDS011;7545;52.092;7.006;2022-12-08T12:00:08;3.13;;;2.63;;
14907;SDS011;7545;52.092;7.006;2022-12-08T12:02:36;2.33;;;2.03;;
14907;SDS011;7545;52.092;7.006;2022-12-08T12:05:10;5.27;;;2.53;;
14907;SDS011;7545;52.092;7.006;2022-12-08T12:10:42;7.17;;;2.60;;
14907;SDS011;7545;52.092;7.006;2022-12-08T12:18:49;3.93;;;3.07;;
14907;SDS011;7545;52.092;7.006;2022-12-08T12:22:07;2.70;;;2.23;;
14907;SDS011;7545;52.092;7.006;2022-12-08T12:24:32;3.27;;;2.53;;
14907;SDS011;7545;52.092;7.006;2022-12-08T12:30:17;3.23;;;2.33;;
14907;SDS011;7545;52.092;7.006;2022-12-08T12:32:58;4.10;;;2.53;;
14907;SDS011;7545;52.092;7.006;2022-12-08T12:35:32;2.30;;;2.07;;
14907;SDS011;7545;52.092;7.006;2022-12-08T12:38:05;3.67;;;2.20;;
14907;SDS011;7545;52.092;7.006;2022-12-08T12:41:00;5.50;;;2.80;;
14907;SDS011;7545;52.092;7.006;2022-12-08T12:43:30;3.73;;;2.23;;
14907;SDS011;7545;52.092;7.006;2022-12-08T12:48:49;4.47;;;2.60;;
14907;SDS011;7545;52.092;7.006;2022-12-08T12:51:41;4.67;;;3.10;;
14907;SDS011;7545;52.092;7.006;2022-12-08T12:54:20;4.50;;;2.63;;
14907;SDS011;7545;52.092;7.006;2022-12-08T12:56:48;3.80;;;2.70;;
14907;SDS011;7545;52.092;7.006;2022-12-08T12:59:30;3.83;;;3.27;;
14907;SDS011;7545;52.092;7.006;2022-12-08T13:08:52;3.17;;;2.87;;
14907;SDS011;7545;52.092;7.006;2022-12-08T13:11:04;3.57;;;2.80;;
14907;SDS011;7545;52.092;7.006;2022-12-08T13:13:33;3.83;;;2.80;;
14907;SDS011;7545;52.092;7.006;2022-12-08T13:21:37;5.90;;;3.27;;
14907;SDS011;7545;52.092;7.006;2022-12-08T13:26:47;2.67;;;2.10;;
14907;SDS011;7545;52.092;7.006;2022-12-08T13:29:28;3.90;;;2.90;;
14907;SDS011;7545;52.092;7.006;2022-12-08T13:31:58;3.17;;;2.50;;
14907;SDS011;7545;52.092;7.006;2022-12-08T13:34:35;3.07;;;2.43;;
14907;SDS011;7545;52.092;7.006;2022-12-08T13:44:50;3.40;;;2.63;;
14907;SDS011;7545;52.092;7.006;2022-12-08T13:47:21;4.70;;;2.70;;
14907;SDS011;7545;52.092;7.006;2022-12-08T13:49:58;3.83;;;3.10;;
14907;SDS011;7545;52.092;7.006;2022-12-08T13:52:59;3.53;;;2.77;;
14907;SDS011;7545;52.092;7.006;2022-12-08T13:55:33;4.63;;;3.20;;
14907;SDS011;7545;52.092;7.006;2022-12-08T13:58:04;4.63;;;3.53;;
14907;SDS011;7545;52.092;7.006;2022-12-08T14:00:30;4.07;;;3.13;;
14907;SDS011;7545;52.092;7.006;2022-12-08T14:02:56;3.80;;;2.60;;
14907;SDS011;7545;52.092;7.006;2022-12-08T14:05:25;3.77;;;2.80;;
14907;SDS011;7545;52.092;7.006;2022-12-08T14:08:02;3.23;;;2.70;;
14907;SDS011;7545;52.092;7.006;2022-12-08T14:10:32;2.97;;;2.40;;
14907;SDS011;7545;52.092;7.006;2022-12-08T14:13:02;3.27;;;2.97;;
14907;SDS011;7545;52.092;7.006;2022-12-08T14:15:33;4.60;;;2.93;;
14907;SDS011;7545;52.092;7.006;2022-12-08T14:17:59;6.23;;;3.97;;
14907;SDS011;7545;52.092;7.006;2022-12-08T14:20:26;5.63;;;3.53;;
14907;SDS011;7545;52.092;7.006;2022-12-08T14:22:54;5.00;;;3.47;;
14907;SDS011;7545;52.092;7.006;2022-12-08T14:25:20;5.13;;;3.37;;
14907;SDS011;7545;52.092;7.006;2022-12-08T14:27:47;3.63;;;2.83;;
14907;SDS011;7545;52.092;7.006;2022-12-08T14:32:41;3.60;;;2.97;;
14907;SDS011;7545;52.092;7.006;2022-12-08T14:35:33;3.93;;;3.53;;
14907;SDS011;7545;52.092;7.006;2022-12-08T14:38:23;3.73;;;2.97;;
14907;SDS011;7545;52.092;7.006;2022-12-08T14:41:02;3.90;;;2.70;;
14907;SDS011;7545;52.092;7.006;2022-12-08T14:43:30;3.47;;;2.60;;
14907;SDS011;7545;52.092;7.006;2022-12-08T14:45:58;4.83;;;2.93;;
14907;SDS011;7545;52.092;7.006;2022-12-08T14:53:20;2.30;;;1.97;;
14907;SDS011;7545;52.092;7.006;2022-12-08T14:55:46;2.33;;;1.70;;
14907;SDS011;7545;52.092;7.006;2022-12-08T14:58:19;3.43;;;1.93;;
14907;SDS011;7545;52.092;7.006;2022-12-08T15:00:51;3.77;;;2.17;;
14907;SDS011;7545;52.092;7.006;2022-12-08T15:03:20;4.47;;;2.07;;
14907;SDS011;7545;52.092;7.006;2022-12-08T15:05:51;2.50;;;2.07;;
14907;SDS011;7545;52.092;7.006;2022-12-08T15:08:19;2.17;;;1.87;;
14907;SDS011;7545;52.092;7.006;2022-12-08T15:10:44;2.80;;;2.20;;
14907;SDS011;7545;52.092;7.006;2022-12-08T15:15:54;3.83;;;1.70;;
14907;SDS011;7545;52.092;7.006;2022-12-08T15:20:54;7.70;;;2.47;;
14907;SDS011;7545;52.092;7.006;2022-12-08T15:23:27;2.37;;;1.90;;
14907;SDS011;7545;52.092;7.006;2022-12-08T15:25:55;3.13;;;2.30;;
14907;SDS011;7545;52.092;7.006;2022-12-08T15:28:23;4.50;;;2.80;;
14907;SDS011;7545;52.092;7.006;2022-12-08T15:30:50;4.50;;;2.80;;
14907;SDS011;7545;52.092;7.006;2022-12-08T15:33:16;3.97;;;2.77;;
14907;SDS011;7545;52.092;7.006;2022-12-08T15:35:42;5.67;;;3.47;;
14907;SDS011;7545;52.092;7.006;2022-12-08T15:38:24;3.83;;;2.87;;
14907;SDS011;7545;52.092;7.006;2022-12-08T15:40:51;4.20;;;3.00;;
14907;SDS011;7545;52.092;7.006;2022-12-08T15:43:18;4.40;;;3.17;;
14907;SDS011;7545;52.092;7.006;2022-12-08T15:45:44;4.30;;;3.77;;
14907;SDS011;7545;52.092;7.006;2022-12-08T15:48:14;5.13;;;3.43;;
14907;SDS011;7545;52.092;7.006;2022-12-08T15:50:41;5.93;;;4.17;;
14907;SDS011;7545;52.092;7.006;2022-12-08T15:53:08;4.47;;;3.97;;
14907;SDS011;7545;52.092;7.006;2022-12-08T15:55:34;4.93;;;3.23;;
14907;SDS011;7545;52.092;7.006;2022-12-08T15:58:00;4.60;;;3.50;;
14907;SDS011;7545;52.092;7.006;2022-12-08T16:00:29;4.07;;;3.17;;
14907;SDS011;7545;52.092;7.006;2022-12-08T16:02:58;4.73;;;3.53;;
14907;SDS011;7545;52.092;7.006;2022-12-08T16:05:25;5.13;;;4.03;;
14907;SDS011;7545;52.092;7.006;2022-12-08T16:07:51;4.97;;;3.97;;
14907;SDS011;7545;52.092;7.006;2022-12-08T16:10:19;5.30;;;4.13;;
14907;SDS011;7545;52.092;7.006;2022-12-08T16:12:47;4.43;;;3.50;;
14907;SDS011;7545;52.092;7.006;2022-12-08T16:15:35;6.17;;;4.13;;
14907;SDS011;7545;52.092;7.006;2022-12-08T16:18:03;6.50;;;4.97;;
14907;SDS011;7545;52.092;7.006;2022-12-08T16:20:29;5.07;;;4.37;;
14907;SDS011;7545;52.092;7.006;2022-12-08T16:22:54;5.83;;;5.07;;
14907;SDS011;7545;52.092;7.006;2022-12-08T16:25:20;6.50;;;5.37;;
14907;SDS011;7545;52.092;7.006;2022-12-08T16:27:47;7.33;;;5.10;;
14907;SDS011;7545;52.092;7.006;2022-12-08T16:30:15;7.43;;;5.53;;
14907;SDS011;7545;52.092;7.006;2022-12-08T16:32:41;9.10;;;6.73;;
14907;SDS011;7545;52.092;7.006;2022-12-08T16:35:07;8.13;;;6.37;;
14907;SDS011;7545;52.092;7.006;2022-12-08T16:37:34;9.13;;;6.90;;
14907;SDS011;7545;52.092;7.006;2022-12-08T16:40:00;9.60;;;6.90;;
14907;SDS011;7545;52.092;7.006;2022-12-08T16:42:26;12.40;;;8.10;;
14907;SDS011;7545;52.092;7.006;2022-12-08T16:47:40;12.37;;;8.20;;
14907;SDS011;7545;52.092;7.006;2022-12-08T16:50:11;10.27;;;8.20;;
14907;SDS011;7545;52.092;7.006;2022-12-08T16:52:42;13.33;;;8.90;;
14907;SDS011;7545;52.092;7.006;2022-12-08T16:55:10;10.13;;;7.93;;